Time;durP1;ratioP1;P1;durP2;ratioP2;P2;SDS_P1;SDS_P2;PMS_P1;PMS_P2;Temp;Humidity;BMP_temperature;BMP_pressure;BME280_temperature;BME280_humidity;BME280_pressure;Samples;Min_cycle;Max_cycle;Signal;HPM_P1;HPM_P2
2022/12/03 00:01:48;;;;;;;21.47;14.00;;;2.80;99.90;;;;;;4973472;28;20202;-69
2022/12/03 00:04:14;;;;;;;20.63;13.97;;;2.70;99.90;;;;;;4973325;28;20263;-70
2022/12/03 00:06:39;;;;;;;24.37;15.20;;;2.60;99.90;;;;;;4973373;28;20179;-70
2022/12/03 00:09:05;;;;;;;25.00;14.73;;;2.60;99.90;;;;;;4973504;28;20185;-70
2022/12/03 00:11:30;;;;;;;25.60;14.77;;;2.60;99.90;;;;;;4968930;28;20270;-69
2022/12/03 00:13:56;;;;;;;27.57;15.37;;;2.50;99.90;;;;;;4969295;28;20179;-69
2022/12/03 00:16:21;;;;;;;25.47;15.30;;;2.50;99.90;;;;;;4964546;28;20269;-70
2022/12/03 00:18:47;;;;;;;26.23;14.57;;;2.40;99.90;;;;;;4966993;28;20268;-69
2022/12/03 00:21:12;;;;;;;27.70;15.90;;;2.40;99.90;;;;;;4970696;28;20215;-69
2022/12/03 00:23:38;;;;;;;28.63;15.80;;;2.30;99.90;;;;;;4973079;28;20179;-70
2022/12/03 00:26:04;;;;;;;29.93;14.10;;;2.30;99.90;;;;;;4964839;28;20638;-69
2022/12/03 00:28:29;;;;;;;25.43;15.03;;;2.30;99.90;;;;;;4969018;28;20564;-69
2022/12/03 00:30:55;;;;;;;27.83;16.77;;;2.30;99.90;;;;;;4968661;28;20567;-70
2022/12/03 00:33:21;;;;;;;22.13;13.77;;;2.30;99.90;;;;;;4970120;28;20960;-69
2022/12/03 00:35:46;;;;;;;33.97;17.30;;;2.30;99.90;;;;;;4967426;28;20186;-69
2022/12/03 00:38:12;;;;;;;24.80;14.83;;;2.30;99.90;;;;;;4955665;28;20847;-69
2022/12/03 00:40:37;;;;;;;25.33;14.30;;;2.30;99.90;;;;;;4972932;28;20213;-70
2022/12/03 00:43:03;;;;;;;22.40;13.97;;;2.30;99.90;;;;;;4972859;28;20212;-70
2022/12/03 00:45:28;;;;;;;34.10;16.23;;;2.30;99.90;;;;;;4969775;28;20582;-69
2022/12/03 00:47:54;;;;;;;28.00;15.50;;;2.30;99.90;;;;;;4965611;28;20207;-69
2022/12/03 00:50:19;;;;;;;27.27;16.17;;;2.30;99.90;;;;;;4969928;28;20219;-69
2022/12/03 00:52:45;;;;;;;25.83;14.67;;;2.30;99.90;;;;;;4958470;28;20936;-69
2022/12/03 00:55:10;;;;;;;28.80;14.93;;;2.30;99.90;;;;;;4961140;28;20236;-69
2022/12/03 00:57:36;;;;;;;27.30;16.53;;;2.30;99.90;;;;;;4964219;28;20318;-69
2022/12/03 01:00:04;;;;;;;26.87;14.90;;;2.30;99.90;;;;;;4971949;28;20194;-69
2022/12/03 01:02:29;;;;;;;26.50;15.30;;;2.30;99.90;;;;;;4964068;28;20257;-70
2022/12/03 01:04:55;;;;;;;22.23;14.30;;;2.30;99.90;;;;;;4971769;28;20415;-69
2022/12/03 01:07:20;;;;;;;29.50;16.43;;;2.30;99.90;;;;;;4970695;28;20596;-69
2022/12/03 01:09:46;;;;;;;28.50;15.43;;;2.30;99.90;;;;;;4970683;28;20175;-70
2022/12/03 01:12:11;;;;;;;29.80;15.27;;;2.30;99.90;;;;;;4970668;28;20198;-69
2022/12/03 01:14:37;;;;;;;30.47;14.77;;;2.30;99.90;;;;;;4970536;28;20188;-70
2022/12/03 01:17:03;;;;;;;24.87;14.70;;;2.30;99.90;;;;;;4970930;28;20190;-69
2022/12/03 01:19:28;;;;;;;26.80;14.70;;;2.30;99.90;;;;;;4970619;28;20703;-69
2022/12/03 01:21:54;;;;;;;29.40;16.00;;;2.40;99.90;;;;;;4971295;28;20212;-70
2022/12/03 01:24:20;;;;;;;27.77;14.43;;;2.40;99.90;;;;;;4972096;28;20178;-69
2022/12/03 01:26:45;;;;;;;25.77;13.80;;;2.40;99.90;;;;;;4972321;28;20216;-70
2022/12/03 01:29:11;;;;;;;30.60;15.17;;;2.40;99.90;;;;;;4972411;28;20180;-69
2022/12/03 01:34:21;;;;;;;25.37;14.33;;;2.40;99.90;;;;;;4975234;28;20237;-69
2022/12/03 01:36:47;;;;;;;26.60;14.23;;;2.50;99.90;;;;;;4976222;28;20466;-70
2022/12/03 01:39:12;;;;;;;30.10;16.13;;;2.50;99.90;;;;;;4974831;28;20184;-69
2022/12/03 01:41:39;;;;;;;30.30;15.90;;;2.50;99.90;;;;;;4975743;28;20296;-70
2022/12/03 01:44:20;;;;;;;27.20;15.27;;;2.50;99.90;;;;;;4976090;28;20258;-70
2022/12/03 01:46:46;;;;;;;28.97;16.13;;;2.50;99.90;;;;;;4975923;28;20442;-69
2022/12/03 01:49:19;;;;;;;28.93;17.00;;;2.50;99.90;;;;;;4976302;28;20416;-69
2022/12/03 01:51:46;;;;;;;29.27;15.07;;;2.50;99.90;;;;;;4975860;28;20794;-69
2022/12/03 01:54:20;;;;;;;29.73;15.93;;;2.50;99.90;;;;;;4975947;28;20826;-69
2022/12/03 01:56:46;;;;;;;26.47;16.10;;;2.50;99.90;;;;;;4976045;28;20424;-70
2022/12/03 01:59:17;;;;;;;29.70;16.20;;;2.50;99.90;;;;;;4975656;28;20495;-70
2022/12/03 03:32:20;;;;;;;22.30;13.43;;;3.10;99.90;;;;;;5353118;22;20863;-72
2022/12/03 03:34:46;;;;;;;24.83;12.90;;;3.10;99.90;;;;;;5050259;28;20389;-72
2022/12/03 03:37:11;;;;;;;23.27;13.13;;;3.10;99.90;;;;;;5051731;28;20650;-69
2022/12/03 03:39:37;;;;;;;20.70;13.70;;;3.10;99.90;;;;;;5051416;28;20191;-69
2022/12/03 03:42:03;;;;;;;25.80;15.23;;;3.10;99.90;;;;;;5040371;28;20223;-69
2022/12/03 03:44:28;;;;;;;23.53;15.27;;;3.10;99.90;;;;;;5046362;28;20207;-67
2022/12/03 03:46:55;;;;;;;27.63;14.47;;;3.10;99.90;;;;;;5051449;28;20177;-69
2022/12/03 03:49:21;;;;;;;21.90;13.57;;;3.20;99.90;;;;;;5029901;28;20226;-69
2022/12/03 03:51:47;;;;;;;26.50;14.87;;;3.20;99.90;;;;;;5052937;28;20514;-71
2022/12/03 03:54:12;;;;;;;23.17;12.93;;;3.20;99.90;;;;;;5052655;28;20190;-70
2022/12/03 03:56:38;;;;;;;30.40;14.23;;;3.20;99.90;;;;;;5052008;28;20258;-71
2022/12/03 03:59:04;;;;;;;28.00;14.50;;;3.20;99.90;;;;;;5051250;28;20225;-70
2022/12/03 04:01:30;;;;;;;24.37;13.73;;;3.40;99.90;;;;;;5050182;28;20560;-70
2022/12/03 04:03:58;;;;;;;22.50;13.53;;;3.40;99.90;;;;;;5050540;28;20167;-70
2022/12/03 04:06:24;;;;;;;21.27;13.93;;;3.40;99.90;;;;;;5050410;28;20429;-70
2022/12/03 04:08:50;;;;;;;25.30;14.70;;;3.40;99.90;;;;;;5051067;28;20756;-70
2022/12/03 04:14:00;;;;;;;25.83;12.97;;;3.30;99.90;;;;;;5051223;28;20912;-70
2022/12/03 04:16:25;;;;;;;21.80;12.40;;;3.40;99.90;;;;;;5049840;28;20403;-70
2022/12/03 04:18:51;;;;;;;23.57;14.30;;;3.40;99.90;;;;;;5051085;28;20189;-70
2022/12/03 04:24:04;;;;;;;26.73;13.53;;;3.40;99.90;;;;;;5050469;28;20279;-70
2022/12/03 04:29:14;;;;;;;20.60;12.40;;;3.40;99.90;;;;;;5051240;28;20453;-70
2022/12/03 04:37:08;;;;;;;19.27;12.77;;;3.40;99.90;;;;;;5050464;28;20417;-68
2022/12/03 04:39:34;;;;;;;25.87;14.30;;;3.40;99.90;;;;;;5050549;28;20424;-70
2022/12/03 04:41:59;;;;;;;28.17;15.67;;;3.50;99.90;;;;;;5050620;28;20200;-70
2022/12/03 04:44:37;;;;;;;22.80;12.80;;;3.50;99.90;;;;;;5050744;28;20539;-68
2022/12/03 04:47:19;;;;;;;23.57;14.40;;;3.50;99.90;;;;;;5050068;28;20171;-70
2022/12/03 04:49:47;;;;;;;23.37;14.03;;;3.50;99.90;;;;;;5050931;28;20393;-71
2022/12/03 04:52:15;;;;;;;31.60;14.70;;;3.50;99.90;;;;;;5050584;28;20866;-71
2022/12/03 04:54:41;;;;;;;20.63;13.00;;;3.40;99.90;;;;;;5049182;28;20389;-71
2022/12/03 04:57:08;;;;;;;23.77;14.27;;;3.40;99.90;;;;;;5050360;28;20423;-71
2022/12/03 04:59:34;;;;;;;20.53;14.43;;;3.40;99.90;;;;;;5050194;28;20193;-70
2022/12/03 05:01:59;;;;;;;22.40;12.90;;;3.40;99.90;;;;;;5050066;28;20450;-70
2022/12/03 05:04:25;;;;;;;23.67;13.80;;;3.40;99.90;;;;;;5049365;28;20469;-72
2022/12/03 05:06:51;;;;;;;29.27;14.80;;;3.40;99.90;;;;;;5049662;28;20230;-71
2022/12/03 05:09:16;;;;;;;24.73;13.30;;;3.40;99.90;;;;;;5049972;28;20200;-71
2022/12/03 05:11:42;;;;;;;31.67;14.03;;;3.40;99.90;;;;;;5049943;28;20198;-71
2022/12/03 05:14:08;;;;;;;26.73;14.23;;;3.40;99.90;;;;;;5049070;28;20549;-70
2022/12/03 05:16:34;;;;;;;22.50;13.30;;;3.40;99.90;;;;;;5049224;28;20224;-71
2022/12/03 05:19:00;;;;;;;22.80;14.60;;;3.40;99.90;;;;;;5050089;28;20926;-71
2022/12/03 05:21:26;;;;;;;27.13;13.80;;;3.40;99.90;;;;;;5049735;28;20239;-71
2022/12/03 05:23:51;;;;;;;26.40;15.17;;;3.40;99.90;;;;;;5049769;28;20416;-69
2022/12/03 05:26:17;;;;;;;25.27;15.13;;;3.40;99.90;;;;;;5049381;28;20174;-70
2022/12/03 05:28:43;;;;;;;27.80;15.23;;;3.40;99.90;;;;;;5049399;28;20183;-71
2022/12/03 05:31:08;;;;;;;26.80;14.60;;;3.40;99.90;;;;;;5049600;28;20300;-68
2022/12/03 05:33:34;;;;;;;25.07;13.80;;;3.50;99.90;;;;;;5049834;28;20563;-71
2022/12/03 05:35:59;;;;;;;29.07;16.17;;;3.40;99.90;;;;;;5049236;28;20179;-71
2022/12/03 05:38:25;;;;;;;29.60;15.20;;;3.40;99.90;;;;;;5049811;28;20204;-70
2022/12/03 05:40:51;;;;;;;27.67;15.40;;;3.40;99.90;;;;;;5049050;28;20175;-70
2022/12/03 05:43:16;;;;;;;30.60;15.40;;;3.40;99.90;;;;;;5049879;28;20183;-71
2022/12/03 05:45:43;;;;;;;28.63;15.03;;;3.40;99.90;;;;;;5049023;28;20215;-71
2022/12/03 05:48:11;;;;;;;31.93;15.90;;;3.40;99.90;;;;;;5049718;28;20212;-68
2022/12/03 05:50:38;;;;;;;27.10;16.07;;;3.50;99.90;;;;;;5049418;28;20408;-71
2022/12/03 05:53:04;;;;;;;27.43;14.13;;;3.50;99.90;;;;;;5049799;28;20388;-71
2022/12/03 05:55:30;;;;;;;29.57;16.17;;;3.40;99.90;;;;;;5048272;28;20957;-70
2022/12/03 05:57:56;;;;;;;28.20;15.93;;;3.40;99.90;;;;;;5049801;28;20178;-70
2022/12/03 06:00:25;;;;;;;29.23;15.47;;;3.40;99.90;;;;;;5049473;28;20889;-71
2022/12/03 06:02:51;;;;;;;27.23;14.40;;;3.40;99.90;;;;;;5049344;28;20454;-70
2022/12/03 06:05:20;;;;;;;27.90;14.03;;;3.40;99.90;;;;;;5048400;28;20415;-71
2022/12/03 06:07:48;;;;;;;28.70;16.47;;;3.40;99.90;;;;;;5049623;28;20406;-70
2022/12/03 06:10:16;;;;;;;35.97;17.00;;;3.50;99.90;;;;;;5049549;28;20501;-71
2022/12/03 06:12:42;;;;;;;30.00;16.10;;;3.50;99.90;;;;;;5049160;28;20471;-71
2022/12/03 06:15:09;;;;;;;26.33;14.60;;;3.60;99.90;;;;;;5033389;28;20466;-68
2022/12/03 06:17:34;;;;;;;31.17;15.90;;;3.50;99.90;;;;;;5028861;28;20467;-70
2022/12/03 06:20:00;;;;;;;31.57;16.73;;;3.50;99.90;;;;;;5032024;28;20513;-71
2022/12/03 06:22:26;;;;;;;36.50;17.40;;;3.60;99.90;;;;;;5032748;28;20216;-71
2022/12/03 06:24:52;;;;;;;31.40;18.00;;;3.60;99.90;;;;;;5032532;28;20182;-70
2022/12/03 06:27:18;;;;;;;32.70;17.33;;;3.60;99.90;;;;;;5033174;28;20177;-71
2022/12/03 06:29:43;;;;;;;28.07;15.13;;;3.60;99.90;;;;;;5032845;28;20407;-71
2022/12/03 06:32:09;;;;;;;31.63;15.50;;;3.70;99.90;;;;;;5032282;28;20219;-70
2022/12/03 06:34:34;;;;;;;31.87;16.50;;;3.60;99.90;;;;;;5015075;28;20284;-71
2022/12/03 06:37:00;;;;;;;29.43;15.67;;;3.70;99.90;;;;;;5032474;28;20185;-71
2022/12/03 06:39:26;;;;;;;30.50;15.33;;;3.60;99.90;;;;;;5032623;28;20287;-71
2022/12/03 06:41:51;;;;;;;31.57;16.70;;;3.60;99.90;;;;;;5032056;28;20262;-71
2022/12/03 06:44:17;;;;;;;36.20;16.50;;;3.60;99.90;;;;;;5032402;28;20462;-71
2022/12/03 06:46:42;;;;;;;28.67;16.00;;;3.60;99.90;;;;;;5032165;28;20167;-72
2022/12/03 06:49:08;;;;;;;29.40;16.00;;;3.50;99.90;;;;;;5032743;28;20535;-68
2022/12/03 06:51:34;;;;;;;31.83;17.43;;;3.60;99.90;;;;;;5032146;28;20201;-70
2022/12/03 06:54:00;;;;;;;35.07;17.07;;;3.60;99.90;;;;;;5038841;28;20627;-69
2022/12/03 06:56:26;;;;;;;30.90;16.20;;;3.50;99.90;;;;;;5040797;28;20394;-70
2022/12/03 06:58:51;;;;;;;28.90;14.70;;;3.60;99.90;;;;;;5040126;28;20180;-69
2022/12/03 07:01:17;;;;;;;33.20;17.70;;;3.60;99.90;;;;;;5041657;28;20273;-70
2022/12/03 07:03:42;;;;;;;32.87;16.50;;;3.60;99.90;;;;;;5040467;28;20616;-70
2022/12/03 07:06:08;;;;;;;30.20;16.33;;;3.60;99.90;;;;;;5044801;28;20825;-68
2022/12/03 07:08:33;;;;;;;34.13;18.37;;;3.70;99.90;;;;;;5040175;28;20286;-70
2022/12/03 07:10:59;;;;;;;34.37;17.73;;;3.60;99.90;;;;;;5023718;28;20205;-70
2022/12/03 07:13:25;;;;;;;30.43;17.17;;;3.70;99.90;;;;;;5041217;28;20210;-70
2022/12/03 07:15:51;;;;;;;41.77;18.37;;;3.60;99.90;;;;;;5041386;28;20175;-69
2022/12/03 07:18:16;;;;;;;37.23;18.17;;;3.70;99.90;;;;;;5052116;28;20177;-70
2022/12/03 07:20:42;;;;;;;38.83;17.83;;;3.70;99.90;;;;;;5051821;28;20409;-70
2022/12/03 07:23:07;;;;;;;35.37;17.70;;;3.60;99.90;;;;;;5051946;28;20673;-67
2022/12/03 07:25:33;;;;;;;32.80;15.83;;;3.60;99.90;;;;;;5050779;28;20176;-70
2022/12/03 07:27:58;;;;;;;35.57;16.50;;;3.60;99.90;;;;;;5051424;28;20196;-69
2022/12/03 07:30:24;;;;;;;69.93;27.00;;;3.60;99.90;;;;;;5051681;28;20564;-70
2022/12/03 07:32:50;;;;;;;122.93;44.80;;;3.60;99.90;;;;;;5051968;28;20704;-70
2022/12/03 07:35:16;;;;;;;49.03;22.70;;;3.60;99.90;;;;;;5051169;28;20184;-71
2022/12/03 07:37:41;;;;;;;35.23;17.70;;;3.70;99.90;;;;;;5051674;28;20606;-70
2022/12/03 07:40:08;;;;;;;37.43;17.67;;;3.70;99.90;;;;;;5049938;28;20525;-70
2022/12/03 07:42:34;;;;;;;34.03;17.43;;;3.70;99.90;;;;;;5051282;28;20602;-70
2022/12/03 07:44:59;;;;;;;33.60;17.93;;;3.70;99.90;;;;;;5050675;28;20426;-70
2022/12/03 07:47:25;;;;;;;39.23;17.10;;;3.70;99.90;;;;;;5048403;28;20186;-70
2022/12/03 07:49:50;;;;;;;40.20;17.77;;;3.70;99.90;;;;;;5041478;28;20174;-70
2022/12/03 07:52:16;;;;;;;36.80;17.03;;;3.70;99.90;;;;;;5041233;28;20232;-70
2022/12/03 07:54:41;;;;;;;38.43;17.30;;;3.70;99.90;;;;;;5039229;28;20181;-70
2022/12/03 07:57:07;;;;;;;35.97;18.30;;;3.70;99.90;;;;;;5041549;28;20279;-69
2022/12/03 07:59:32;;;;;;;37.13;18.53;;;3.70;99.90;;;;;;5040641;28;20255;-69
2022/12/03 08:01:58;;;;;;;47.93;18.80;;;3.80;99.90;;;;;;5039706;28;20213;-70
2022/12/03 08:04:23;;;;;;;36.23;17.87;;;3.80;99.90;;;;;;5031040;28;20180;-70
2022/12/03 08:06:49;;;;;;;39.10;18.37;;;3.80;99.90;;;;;;5030367;28;20189;-69
2022/12/03 08:09:15;;;;;;;38.60;18.53;;;3.80;99.90;;;;;;5030731;28;20557;-70
2022/12/03 08:11:41;;;;;;;36.13;19.90;;;3.80;99.90;;;;;;5030926;28;20193;-70
2022/12/03 08:14:12;;;;;;;34.77;17.57;;;3.90;99.90;;;;;;5032157;28;20664;-71
2022/12/03 08:16:39;;;;;;;38.87;19.20;;;3.80;99.90;;;;;;5041416;28;20424;-71
2022/12/03 08:19:11;;;;;;;36.80;18.60;;;3.90;99.90;;;;;;5038946;28;20860;-70
2022/12/03 08:21:37;;;;;;;39.93;18.47;;;3.90;99.90;;;;;;5022995;28;20451;-70
2022/12/03 08:24:20;;;;;;;35.17;17.83;;;3.90;99.90;;;;;;5041606;28;20477;-70
2022/12/03 08:26:47;;;;;;;49.10;18.90;;;3.90;99.90;;;;;;5049493;28;20412;-70
2022/12/03 08:29:16;;;;;;;42.17;20.20;;;3.80;99.90;;;;;;5041225;28;20410;-70
2022/12/03 08:31:46;;;;;;;39.07;19.50;;;3.80;99.90;;;;;;5039914;28;20877;-70
2022/12/03 08:34:17;;;;;;;38.20;17.63;;;3.80;99.90;;;;;;5039325;28;21023;-70
2022/12/03 08:36:43;;;;;;;40.80;19.60;;;3.80;99.90;;;;;;5039040;28;20418;-70
2022/12/03 08:39:32;;;;;;;38.17;17.90;;;3.80;99.90;;;;;;5040747;28;20426;-69
2022/12/03 08:44:57;;;;;;;39.53;17.70;;;3.90;99.90;;;;;;5039446;28;20461;-70
2022/12/03 08:47:23;;;;;;;41.67;20.53;;;4.00;99.90;;;;;;5039448;28;20415;-72
2022/12/03 08:50:17;;;;;;;35.13;18.07;;;3.90;99.90;;;;;;5041001;28;20411;-68
2022/12/03 08:52:42;;;;;;;38.30;19.77;;;3.90;99.90;;;;;;5040064;28;20531;-70
2022/12/03 08:55:33;;;;;;;34.60;19.10;;;4.00;99.90;;;;;;5037804;28;20537;-68
2022/12/03 08:57:59;;;;;;;35.80;17.00;;;4.00;99.90;;;;;;5040542;28;20171;-70
2022/12/03 09:00:24;;;;;;;43.33;21.53;;;3.90;99.90;;;;;;5030586;28;20478;-70
2022/12/03 09:02:52;;;;;;;37.53;19.33;;;3.90;99.90;;;;;;5030120;28;20307;-69
2022/12/03 09:05:19;;;;;;;35.07;18.90;;;4.00;99.90;;;;;;5029544;28;20269;-71
2022/12/03 09:07:45;;;;;;;34.77;18.87;;;4.00;99.90;;;;;;5030515;28;20386;-70
2022/12/03 09:10:11;;;;;;;33.50;17.90;;;3.90;99.90;;;;;;5030001;28;20412;-70
2022/12/03 09:12:36;;;;;;;33.97;17.47;;;3.90;99.90;;;;;;5029800;28;20290;-70
2022/12/03 09:15:02;;;;;;;33.67;17.13;;;4.00;99.90;;;;;;5029800;28;20520;-71
2022/12/03 09:17:27;;;;;;;37.03;17.93;;;3.90;99.90;;;;;;5030201;28;20185;-70
2022/12/03 09:19:53;;;;;;;28.93;14.80;;;3.90;99.90;;;;;;5030240;28;20181;-70
2022/12/03 09:22:18;;;;;;;30.10;15.70;;;3.90;99.90;;;;;;5030139;28;20213;-70
2022/12/03 09:24:44;;;;;;;28.70;15.67;;;3.80;99.90;;;;;;5030253;28;20199;-70
2022/12/03 09:27:09;;;;;;;34.53;16.27;;;3.80;99.90;;;;;;5030897;28;20254;-69
2022/12/03 09:29:35;;;;;;;37.70;16.13;;;3.80;99.90;;;;;;5030026;28;20178;-69
2022/12/03 09:32:00;;;;;;;41.87;17.43;;;3.70;99.90;;;;;;5029872;28;20208;-70
2022/12/03 09:34:26;;;;;;;34.07;18.53;;;3.70;99.90;;;;;;5029986;28;20593;-70
2022/12/03 09:36:51;;;;;;;41.70;17.73;;;3.70;99.90;;;;;;5029395;28;20173;-70
2022/12/03 09:39:17;;;;;;;36.27;19.20;;;3.70;99.90;;;;;;5030043;28;20177;-70
2022/12/03 09:41:43;;;;;;;37.23;17.47;;;3.70;99.90;;;;;;5029318;28;20207;-70
2022/12/03 09:44:10;;;;;;;39.43;17.83;;;3.70;99.90;;;;;;5029873;28;20180;-68
2022/12/03 09:46:37;;;;;;;29.57;16.03;;;3.70;99.90;;;;;;5029883;28;20172;-70
2022/12/03 09:49:05;;;;;;;35.83;18.17;;;3.80;99.90;;;;;;5049735;28;20410;-70
2022/12/03 09:51:34;;;;;;;31.17;18.07;;;3.80;99.90;;;;;;5049483;28;21133;-69
2022/12/03 09:54:01;;;;;;;29.80;14.97;;;3.80;99.90;;;;;;5050125;28;20396;-70
2022/12/03 09:56:27;;;;;;;92.30;42.07;;;3.80;99.90;;;;;;5052949;28;20963;-70
2022/12/03 09:58:53;;;;;;;57.73;32.50;;;3.90;99.90;;;;;;5053812;28;20414;-70
2022/12/03 10:01:18;;;;;;;36.97;17.93;;;3.90;99.90;;;;;;5053549;28;20693;-70
2022/12/03 10:03:51;;;;;;;83.10;44.67;;;4.00;99.90;;;;;;5046964;28;20453;-70
2022/12/03 10:06:19;;;;;;;114.57;53.43;;;4.10;99.90;;;;;;5050358;28;20590;-70
2022/12/03 10:08:47;;;;;;;123.77;44.47;;;4.10;99.90;;;;;;5045256;28;20754;-70
2022/12/03 10:11:14;;;;;;;34.00;16.90;;;4.20;99.90;;;;;;5035856;28;20445;-69
2022/12/03 10:13:40;;;;;;;35.80;16.67;;;4.20;99.90;;;;;;5033192;28;20518;-70
2022/12/03 10:16:10;;;;;;;35.13;17.40;;;4.30;99.90;;;;;;5032558;28;20821;-70
2022/12/03 10:18:35;;;;;;;36.67;15.83;;;4.10;99.90;;;;;;5033200;28;20267;-71
2022/12/03 10:21:01;;;;;;;34.97;16.07;;;4.10;99.90;;;;;;5033293;28;20499;-70
2022/12/03 10:23:29;;;;;;;32.43;15.10;;;4.10;99.90;;;;;;5032557;28;20188;-70
2022/12/03 10:26:02;;;;;;;33.70;14.80;;;4.00;99.90;;;;;;5032461;28;20173;-69
2022/12/03 10:28:40;;;;;;;35.43;16.00;;;4.00;99.90;;;;;;5015290;28;20396;-68
2022/12/03 10:31:10;;;;;;;31.73;16.00;;;4.00;99.90;;;;;;5032734;28;20444;-70
2022/12/03 10:33:43;;;;;;;31.10;15.73;;;4.00;99.90;;;;;;5015499;28;20413;-71
2022/12/03 10:36:15;;;;;;;25.97;14.33;;;3.90;99.90;;;;;;5031927;28;20441;-69
2022/12/03 10:38:40;;;;;;;24.27;13.70;;;3.80;99.90;;;;;;5032936;28;20522;-69
2022/12/03 10:41:23;;;;;;;31.57;17.00;;;3.80;99.90;;;;;;5032893;28;20462;-70
2022/12/03 10:43:49;;;;;;;27.90;15.07;;;3.90;99.90;;;;;;5043132;28;20253;-69
2022/12/03 10:46:20;;;;;;;28.07;14.03;;;3.80;99.90;;;;;;5047518;28;20541;-70
2022/12/03 10:49:10;;;;;;;21.20;13.10;;;3.80;99.90;;;;;;5048187;28;20537;-69
2022/12/03 10:51:37;;;;;;;26.27;14.50;;;3.80;99.90;;;;;;5044176;28;20429;-68
2022/12/03 10:54:02;;;;;;;29.33;15.47;;;3.80;99.90;;;;;;5052082;28;20401;-70
2022/12/03 10:56:28;;;;;;;27.53;15.53;;;3.80;99.90;;;;;;5051398;28;20530;-68
2022/12/03 10:58:54;;;;;;;27.83;15.77;;;3.90;99.90;;;;;;5052137;28;20227;-69
2022/12/03 11:01:24;;;;;;;26.40;14.90;;;3.80;99.90;;;;;;5051300;28;20277;-70
2022/12/03 11:03:51;;;;;;;26.37;15.80;;;3.70;99.90;;;;;;5048889;28;20175;-69
2022/12/03 11:06:20;;;;;;;28.87;15.80;;;3.70;99.90;;;;;;5048071;28;20945;-70
2022/12/03 11:08:53;;;;;;;22.77;13.30;;;3.70;99.90;;;;;;5052592;28;20389;-69
2022/12/03 11:11:23;;;;;;;28.70;16.63;;;3.60;99.90;;;;;;5042228;28;20442;-70
2022/12/03 11:13:52;;;;;;;29.00;15.70;;;3.60;99.90;;;;;;5046467;28;20417;-67
2022/12/03 11:16:39;;;;;;;27.83;15.43;;;3.60;99.90;;;;;;5051199;28;20412;-70
2022/12/03 11:19:35;;;;;;;25.10;14.70;;;3.60;99.90;;;;;;5051208;28;20425;-70
2022/12/03 11:22:04;;;;;;;28.90;15.70;;;3.70;99.90;;;;;;5050853;28;20457;-69
2022/12/03 11:24:34;;;;;;;28.43;14.37;;;3.70;99.90;;;;;;5027766;28;20398;-69
2022/12/03 11:27:00;;;;;;;30.33;15.27;;;3.60;99.90;;;;;;5050912;28;20493;-70
2022/12/03 11:29:54;;;;;;;34.00;16.63;;;3.60;99.90;;;;;;5051532;28;20401;-69
2022/12/03 11:32:37;;;;;;;29.83;14.23;;;3.60;99.90;;;;;;5051360;28;20233;-70
2022/12/03 11:35:23;;;;;;;33.33;17.70;;;3.60;99.90;;;;;;5051418;28;20422;-69
2022/12/03 11:37:48;;;;;;;35.30;16.53;;;3.50;99.90;;;;;;5033301;28;20437;-67
2022/12/03 11:40:17;;;;;;;29.87;16.10;;;3.50;99.90;;;;;;5051494;28;20414;-70
2022/12/03 11:42:45;;;;;;;34.43;15.97;;;3.50;99.90;;;;;;5051144;28;20614;-70
2022/12/03 11:45:34;;;;;;;33.70;18.90;;;3.40;99.90;;;;;;5050864;28;20424;-70
2022/12/03 11:48:11;;;;;;;31.90;15.43;;;3.50;99.90;;;;;;5051406;28;20931;-70
2022/12/03 11:50:41;;;;;;;29.73;16.73;;;3.40;99.90;;;;;;5051124;28;20471;-68
2022/12/03 11:53:06;;;;;;;31.57;16.40;;;3.40;99.90;;;;;;5054238;28;20482;-70
2022/12/03 11:55:43;;;;;;;31.67;16.40;;;3.40;99.90;;;;;;5070193;28;20935;-69
2022/12/03 11:58:29;;;;;;;24.90;13.50;;;3.40;99.90;;;;;;5071073;28;20179;-68
2022/12/03 12:00:57;;;;;;;31.60;15.23;;;3.50;99.90;;;;;;5070601;28;20474;-69
2022/12/03 12:03:32;;;;;;;25.47;13.63;;;3.50;99.90;;;;;;5070803;28;20899;-70
2022/12/03 12:06:11;;;;;;;25.53;13.27;;;3.50;99.90;;;;;;5070142;28;20396;-70
2022/12/03 12:08:54;;;;;;;22.77;12.60;;;3.50;99.90;;;;;;5051963;28;20428;-70
2022/12/03 12:11:25;;;;;;;23.33;13.30;;;3.50;99.90;;;;;;5070375;28;20544;-70
2022/12/03 12:13:58;;;;;;;23.67;11.47;;;3.40;99.90;;;;;;5070754;28;20416;-69
2022/12/03 12:16:50;;;;;;;27.10;13.13;;;3.40;99.90;;;;;;5069038;28;20390;-70
2022/12/03 12:19:38;;;;;;;31.40;17.70;;;3.40;99.90;;;;;;5070593;28;20473;-69
2022/12/03 12:22:29;;;;;;;21.87;12.10;;;3.30;99.90;;;;;;5070537;28;20451;-70
2022/12/03 12:24:57;;;;;;;26.77;11.77;;;3.30;99.90;;;;;;5070270;28;20491;-70
2022/12/03 12:27:29;;;;;;;22.43;12.60;;;3.40;99.90;;;;;;5069301;28;20418;-70
2022/12/03 12:29:57;;;;;;;23.23;12.50;;;3.30;99.90;;;;;;5070651;28;20417;-70
2022/12/03 12:32:31;;;;;;;46.07;18.80;;;3.20;99.90;;;;;;5069915;28;20550;-71
2022/12/03 12:35:14;;;;;;;37.53;13.97;;;3.20;99.90;;;;;;5070126;28;20474;-71
2022/12/03 12:38:03;;;;;;;35.23;14.67;;;3.20;99.90;;;;;;5069239;28;20927;-71
2022/12/03 12:40:31;;;;;;;35.23;14.13;;;3.20;99.90;;;;;;5069961;28;20903;-69
2022/12/03 12:43:10;;;;;;;28.37;12.90;;;3.20;99.90;;;;;;5050672;28;20480;-71
2022/12/03 12:45:37;;;;;;;24.20;14.10;;;3.20;99.90;;;;;;5049456;28;20414;-70
2022/12/03 12:48:12;;;;;;;25.80;13.10;;;3.30;99.90;;;;;;5049761;28;20801;-71
2022/12/03 12:50:38;;;;;;;24.67;14.03;;;3.20;99.90;;;;;;5042613;28;20435;-69
2022/12/03 12:53:10;;;;;;;26.53;13.00;;;3.30;99.90;;;;;;5049721;28;20417;-70
2022/12/03 12:55:39;;;;;;;25.90;11.40;;;3.20;99.90;;;;;;5055954;28;21010;-68
2022/12/03 12:58:14;;;;;;;20.63;12.33;;;3.20;99.90;;;;;;5050693;28;20543;-70
2022/12/03 13:00:40;;;;;;;18.73;11.37;;;3.20;99.90;;;;;;5040262;28;20401;-70
2022/12/03 13:03:07;;;;;;;19.07;10.40;;;3.20;99.90;;;;;;5046583;28;20465;-71
2022/12/03 13:05:45;;;;;;;20.37;11.60;;;3.20;99.90;;;;;;5048879;28;20468;-69
2022/12/03 13:08:32;;;;;;;25.67;12.53;;;3.20;99.90;;;;;;5049955;28;20437;-70
2022/12/03 13:10:59;;;;;;;28.53;12.37;;;3.20;99.90;;;;;;5049146;28;21058;-71
2022/12/03 13:13:27;;;;;;;30.50;12.20;;;3.20;99.90;;;;;;5049617;28;20417;-70
2022/12/03 13:16:05;;;;;;;26.13;12.27;;;3.20;99.90;;;;;;5049384;28;20411;-70
2022/12/03 13:18:39;;;;;;;20.13;9.73;;;3.20;99.90;;;;;;5031809;28;20424;-70
2022/12/03 13:21:12;;;;;;;23.70;12.40;;;3.20;99.90;;;;;;5049373;28;20431;-71
2022/12/03 13:23:38;;;;;;;26.20;12.83;;;3.20;99.90;;;;;;5049309;28;20393;-67
2022/12/03 13:26:16;;;;;;;31.30;13.67;;;3.20;99.90;;;;;;5049262;28;20411;-71
2022/12/03 13:28:41;;;;;;;30.87;15.50;;;3.20;99.90;;;;;;5050405;28;20380;-71
2022/12/03 13:31:25;;;;;;;35.00;14.80;;;3.20;99.90;;;;;;5053005;28;20472;-71
2022/12/03 13:33:52;;;;;;;24.30;12.47;;;3.20;99.90;;;;;;5025984;28;20180;-71
2022/12/03 13:36:20;;;;;;;32.00;13.23;;;3.20;99.90;;;;;;5046249;28;20425;-70
2022/12/03 13:38:46;;;;;;;26.07;13.07;;;3.20;99.90;;;;;;5053480;28;20488;-71
2022/12/03 13:44:14;;;;;;;23.93;11.20;;;3.20;99.90;;;;;;5053960;28;20464;-71
2022/12/03 13:46:40;;;;;;;21.30;11.57;;;3.20;99.90;;;;;;5052171;28;20383;-71
2022/12/03 13:49:18;;;;;;;22.20;11.13;;;3.20;99.90;;;;;;5048263;28;20449;-69
2022/12/03 13:51:43;;;;;;;21.27;12.80;;;3.30;99.90;;;;;;5038599;28;20952;-70
2022/12/03 13:54:13;;;;;;;22.93;12.77;;;3.20;99.90;;;;;;5048601;28;20449;-71
2022/12/03 13:56:39;;;;;;;33.30;13.03;;;3.30;99.90;;;;;;5035694;28;20756;-71
2022/12/03 13:59:04;;;;;;;27.80;13.33;;;3.30;99.90;;;;;;5040814;28;20481;-71
2022/12/03 14:01:30;;;;;;;22.73;12.53;;;3.30;99.90;;;;;;5043235;28;20208;-71
2022/12/03 14:03:55;;;;;;;26.10;13.20;;;3.40;99.90;;;;;;5044673;28;20230;-71
2022/12/03 14:06:21;;;;;;;25.53;13.67;;;3.30;99.90;;;;;;5044582;28;20252;-69
2022/12/03 14:08:47;;;;;;;29.73;13.30;;;3.30;99.90;;;;;;5051353;28;20210;-70
2022/12/03 14:12:24;;;;;;;18.53;11.67;;;3.30;99.90;;;;;;5051897;28;20417;-71
2022/12/03 14:13:58;;;;;;;25.60;11.70;;;3.30;99.90;;;;;;5051285;28;20216;-71
2022/12/03 14:16:23;;;;;;;30.07;12.70;;;3.30;99.90;;;;;;5046274;28;20824;-70
2022/12/03 14:18:49;;;;;;;26.27;12.00;;;3.20;99.90;;;;;;5052093;28;20220;-70
2022/12/03 14:21:14;;;;;;;33.53;15.53;;;3.20;99.90;;;;;;5051714;28;20734;-71
2022/12/03 14:23:40;;;;;;;34.93;15.63;;;3.10;99.90;;;;;;5051205;28;20208;-69
2022/12/03 14:26:05;;;;;;;36.73;18.00;;;3.10;99.90;;;;;;5051355;28;20195;-68
2022/12/03 14:28:31;;;;;;;29.53;15.27;;;3.00;99.90;;;;;;5050999;28;20288;-68
2022/12/03 14:30:56;;;;;;;31.33;13.80;;;3.10;99.90;;;;;;5051665;28;20209;-70
2022/12/03 14:33:22;;;;;;;26.37;13.70;;;3.10;99.90;;;;;;5051111;28;20222;-69
2022/12/03 14:35:48;;;;;;;27.37;12.53;;;3.10;99.90;;;;;;5034000;28;20207;-69